Time;durP1;ratioP1;P1;durP2;ratioP2;P2;SDS_P1;SDS_P2;PMS_P1;PMS_P2;Temp;Humidity;BMP_temperature;BMP_pressure;BME280_temperature;BME280_humidity;BME280_pressure;Samples;Min_cycle;Max_cycle;Signal;HPM_P1;HPM_P2
2021/01/19 00:00:37;;;;;;;4.47;3.63;;;3.50;75.70;;;;;;5063379;28;20250;-90
2021/01/19 00:03:03;;;;;;;5.13;3.20;;;3.60;75.30;;;;;;5045453;28;20242;-89
2021/01/19 00:05:29;;;;;;;5.63;3.80;;;3.40;75.80;;;;;;5063155;28;20169;-89
2021/01/19 00:07:54;;;;;;;5.83;3.20;;;3.50;76.60;;;;;;5028465;28;20181;-90
2021/01/19 00:10:20;;;;;;;6.83;3.10;;;3.40;76.90;;;;;;5062942;28;20741;-90
2021/01/19 00:12:46;;;;;;;6.50;3.90;;;3.50;76.80;;;;;;5062051;28;20682;-89
2021/01/19 00:15:12;;;;;;;5.83;3.53;;;3.40;76.60;;;;;;5044785;28;20191;-90
2021/01/19 00:17:38;;;;;;;7.33;3.50;;;3.40;76.20;;;;;;5062431;28;20191;-89
2021/01/19 00:20:05;;;;;;;4.90;3.80;;;3.40;76.40;;;;;;5062276;28;20231;-91
2021/01/19 00:22:32;;;;;;;4.87;3.47;;;3.40;76.70;;;;;;5062780;28;20209;-90
2021/01/19 00:24:59;;;;;;;4.63;3.60;;;3.50;75.70;;;;;;5063043;28;20183;-90
2021/01/19 00:27:24;;;;;;;6.43;3.50;;;3.40;76.90;;;;;;5044416;28;20184;-89
2021/01/19 00:29:50;;;;;;;6.13;3.90;;;3.40;76.70;;;;;;5044197;28;20569;-90
2021/01/19 00:32:16;;;;;;;6.53;3.90;;;3.30;78.00;;;;;;5044209;28;20188;-89
2021/01/19 00:34:41;;;;;;;5.43;3.53;;;3.30;77.10;;;;;;5061967;28;20218;-90
2021/01/19 00:37:07;;;;;;;4.27;3.87;;;3.40;77.10;;;;;;5062400;28;20180;-90
2021/01/19 00:39:33;;;;;;;5.63;3.87;;;3.30;77.10;;;;;;5062698;28;20587;-91
2021/01/19 00:41:58;;;;;;;4.43;3.87;;;3.40;77.50;;;;;;5062530;28;20596;-89
2021/01/19 00:44:24;;;;;;;5.17;3.83;;;3.30;77.40;;;;;;5062607;28;20180;-89
2021/01/19 00:46:51;;;;;;;7.07;4.03;;;3.30;77.90;;;;;;5061559;28;20226;-90
2021/01/19 00:49:17;;;;;;;6.77;4.30;;;3.30;77.40;;;;;;5077716;28;20706;-90
2021/01/19 00:51:43;;;;;;;5.83;3.83;;;3.30;77.80;;;;;;5082047;28;20243;-90
2021/01/19 00:54:09;;;;;;;5.07;3.70;;;3.30;77.90;;;;;;5082375;28;20222;-89
2021/01/19 00:56:42;;;;;;;5.40;3.70;;;3.20;77.90;;;;;;5046827;28;20188;-89
2021/01/19 00:59:09;;;;;;;5.53;4.27;;;3.20;78.00;;;;;;5060773;28;20219;-90
2021/01/19 01:01:43;;;;;;;5.50;4.00;;;3.20;78.30;;;;;;5060783;28;20567;-89
2021/01/19 01:04:09;;;;;;;4.43;4.03;;;3.20;77.80;;;;;;5060494;28;20156;-90
2021/01/19 01:06:34;;;;;;;6.00;4.10;;;3.10;79.10;;;;;;5061956;28;20184;-90
2021/01/19 01:09:00;;;;;;;5.60;4.10;;;3.10;78.80;;;;;;5061084;28;20266;-90
2021/01/19 01:11:26;;;;;;;4.77;3.80;;;3.10;78.10;;;;;;5073932;28;20214;-90
2021/01/19 01:13:51;;;;;;;7.03;4.10;;;3.10;78.50;;;;;;5081559;28;20187;-90
2021/01/19 01:16:17;;;;;;;8.07;3.77;;;3.00;77.90;;;;;;5064043;28;20191;-90
2021/01/19 01:18:43;;;;;;;4.70;3.97;;;3.10;78.10;;;;;;5063512;28;20637;-91
2021/01/19 01:21:12;;;;;;;5.83;4.13;;;3.10;78.70;;;;;;5081838;28;20218;-92
2021/01/19 01:23:38;;;;;;;5.93;4.07;;;3.00;78.90;;;;;;5081832;28;20229;-90
2021/01/19 01:26:04;;;;;;;7.23;3.93;;;2.90;79.20;;;;;;5063562;28;20176;-89
2021/01/19 01:28:30;;;;;;;6.23;4.30;;;3.00;79.30;;;;;;5081092;28;20257;-90
2021/01/19 01:30:55;;;;;;;5.27;4.47;;;2.90;79.10;;;;;;5063468;28;20658;-91
2021/01/19 01:33:21;;;;;;;7.80;4.03;;;3.00;79.30;;;;;;5063680;28;20678;-91
2021/01/19 01:35:47;;;;;;;5.27;4.37;;;2.90;80.20;;;;;;5081378;28;20190;-90
2021/01/19 01:38:12;;;;;;;7.67;4.80;;;3.00;80.10;;;;;;5080284;28;20207;-91
2021/01/19 01:40:38;;;;;;;7.13;4.40;;;2.90;80.10;;;;;;5063472;28;20263;-90
2021/01/19 01:43:12;;;;;;;7.63;5.07;;;2.90;80.50;;;;;;5064425;28;20212;-90
2021/01/19 01:45:38;;;;;;;6.17;4.63;;;2.80;80.40;;;;;;5081143;28;20499;-90
2021/01/19 01:48:04;;;;;;;5.60;5.10;;;2.80;80.40;;;;;;5080424;28;20182;-90
2021/01/19 01:50:30;;;;;;;6.83;4.30;;;2.80;80.60;;;;;;5071272;28;20290;-90
2021/01/19 01:52:58;;;;;;;7.43;4.57;;;2.90;79.90;;;;;;5042544;28;20268;-90
2021/01/19 01:55:24;;;;;;;7.33;4.53;;;2.80;80.80;;;;;;5043012;28;20176;-91
2021/01/19 01:57:50;;;;;;;7.87;4.90;;;2.80;81.10;;;;;;5060911;28;20177;-89
2021/01/19 02:00:16;;;;;;;8.57;4.50;;;2.80;81.90;;;;;;5060285;28;20703;-91
2021/01/19 02:02:53;;;;;;;4.37;3.93;;;2.70;82.60;;;;;;5060091;28;20181;-90
2021/01/19 02:05:20;;;;;;;4.57;4.10;;;2.70;82.80;;;;;;5061023;28;20169;-90
2021/01/19 02:08:04;;;;;;;8.33;4.30;;;2.80;82.60;;;;;;5043403;28;20184;-90
2021/01/19 02:10:59;;;;;;;5.70;4.37;;;2.80;82.60;;;;;;5060074;28;20225;-90
2021/01/19 02:13:37;;;;;;;6.07;4.20;;;2.70;82.20;;;;;;5042494;28;20176;-90
2021/01/19 02:16:11;;;;;;;6.93;4.23;;;2.80;81.10;;;;;;5060393;28;20173;-90
2021/01/19 02:18:46;;;;;;;7.03;4.07;;;2.80;80.90;;;;;;5059929;28;20241;-90
2021/01/19 02:21:59;;;;;;;4.57;3.87;;;2.70;80.90;;;;;;5059935;28;20184;-90
2021/01/19 02:24:36;;;;;;;4.63;3.50;;;2.80;80.80;;;;;;5015393;28;20235;-89
2021/01/19 02:27:42;;;;;;;5.73;3.70;;;2.80;79.90;;;;;;5042432;28;20223;-90
2021/01/19 02:30:31;;;;;;;5.40;3.67;;;2.60;80.40;;;;;;5075896;28;20253;-89
2021/01/19 02:33:18;;;;;;;7.67;3.67;;;2.70;80.20;;;;;;5080016;28;20187;-90
2021/01/19 02:36:02;;;;;;;4.87;3.57;;;2.70;80.10;;;;;;5081262;28;20166;-90
2021/01/19 02:38:47;;;;;;;4.70;3.60;;;2.70;79.90;;;;;;5080086;28;20249;-90
2021/01/19 02:41:17;;;;;;;6.83;3.80;;;2.70;79.90;;;;;;5080665;28;20164;-90
2021/01/19 02:43:48;;;;;;;6.37;4.07;;;2.70;79.50;;;;;;5080279;28;20243;-90
2021/01/19 02:46:17;;;;;;;3.90;3.43;;;2.70;79.80;;;;;;5081149;28;20186;-92
2021/01/19 02:48:42;;;;;;;3.90;3.27;;;2.70;79.10;;;;;;5080042;28;20184;-89
2021/01/19 02:51:08;;;;;;;4.53;3.67;;;2.80;78.30;;;;;;5077702;28;20244;-89
2021/01/19 02:53:34;;;;;;;3.93;3.50;;;2.70;78.80;;;;;;5046808;28;20191;-89
2021/01/19 02:56:02;;;;;;;5.90;3.30;;;2.80;77.90;;;;;;5063836;28;20184;-90
2021/01/19 02:58:34;;;;;;;4.30;3.07;;;2.80;78.00;;;;;;5063934;28;20208;-90
2021/01/19 03:01:17;;;;;;;6.27;3.40;;;2.90;77.20;;;;;;5063465;28;20181;-91
2021/01/19 03:03:48;;;;;;;5.40;3.10;;;2.80;77.90;;;;;;5064313;28;20723;-89
2021/01/19 03:06:15;;;;;;;6.13;3.13;;;2.80;76.70;;;;;;5065882;28;20268;-90
2021/01/19 03:08:42;;;;;;;4.73;3.00;;;2.90;77.30;;;;;;5047363;28;20188;-90
2021/01/19 03:11:13;;;;;;;5.03;3.10;;;2.80;77.00;;;;;;5048067;28;20189;-89
2021/01/19 03:13:39;;;;;;;3.70;3.03;;;2.90;76.10;;;;;;5065964;28;20172;-90
2021/01/19 03:16:10;;;;;;;4.20;3.03;;;2.80;76.50;;;;;;5064545;28;20545;-90
2021/01/19 03:18:38;;;;;;;6.60;3.00;;;2.80;76.30;;;;;;5051537;28;20259;-89
2021/01/19 03:21:06;;;;;;;5.40;3.30;;;2.90;76.00;;;;;;5068420;28;20195;-90
2021/01/19 03:23:32;;;;;;;3.40;2.93;;;2.90;75.90;;;;;;5068374;28;20638;-90
2021/01/19 03:25:59;;;;;;;4.03;3.00;;;2.90;75.90;;;;;;5068183;28;20523;-90
2021/01/19 03:28:24;;;;;;;3.17;2.60;;;2.80;75.80;;;;;;5086225;28;20244;-90
2021/01/19 03:30:51;;;;;;;3.40;2.37;;;2.90;76.20;;;;;;5083346;28;20225;-90
2021/01/19 03:33:16;;;;;;;5.23;3.37;;;2.80;75.30;;;;;;5085856;28;20657;-90
2021/01/19 03:35:42;;;;;;;4.20;2.70;;;2.80;75.60;;;;;;5085927;28;20175;-90
2021/01/19 03:38:08;;;;;;;3.30;2.50;;;2.90;75.00;;;;;;5066793;28;20217;-90
2021/01/19 03:40:35;;;;;;;4.03;2.70;;;2.90;75.80;;;;;;5047938;28;20208;-90
2021/01/19 03:43:01;;;;;;;3.07;2.60;;;2.90;75.40;;;;;;5047570;28;20218;-90
2021/01/19 03:45:27;;;;;;;3.97;2.60;;;2.80;74.90;;;;;;5066142;28;20180;-89
2021/01/19 03:47:53;;;;;;;3.63;2.43;;;2.80;74.60;;;;;;5068361;28;20385;-90
2021/01/19 03:50:19;;;;;;;3.37;2.40;;;2.80;74.80;;;;;;5067244;28;20223;-90
2021/01/19 03:52:45;;;;;;;4.30;2.80;;;2.90;74.90;;;;;;5067045;28;20212;-91
2021/01/19 03:55:11;;;;;;;3.50;2.70;;;2.90;73.80;;;;;;5066851;28;20190;-90
2021/01/19 03:57:37;;;;;;;3.00;2.50;;;3.00;73.60;;;;;;5084882;28;20654;-89
2021/01/19 04:00:07;;;;;;;6.13;2.90;;;3.00;73.40;;;;;;5084771;28;20219;-91
2021/01/19 04:02:33;;;;;;;3.87;2.60;;;3.00;73.60;;;;;;5085567;28;20175;-90
2021/01/19 04:04:59;;;;;;;3.57;2.50;;;3.00;73.50;;;;;;5084364;28;20230;-89
2021/01/19 04:07:27;;;;;;;3.10;2.10;;;3.10;73.20;;;;;;5067256;28;20219;-90
2021/01/19 04:09:53;;;;;;;5.63;2.30;;;3.00;73.10;;;;;;5083950;28;20211;-90
2021/01/19 04:12:19;;;;;;;4.50;2.63;;;3.00;73.40;;;;;;5067542;28;20184;-90
2021/01/19 04:14:44;;;;;;;4.10;3.40;;;3.10;72.60;;;;;;5085436;28;20194;-89
2021/01/19 04:17:10;;;;;;;2.97;2.40;;;3.10;72.50;;;;;;5067649;28;20180;-91
2021/01/19 04:19:36;;;;;;;3.63;2.27;;;3.10;73.20;;;;;;5085432;28;20223;-89
2021/01/19 04:22:01;;;;;;;4.13;2.57;;;3.20;72.60;;;;;;5084993;28;20199;-91
2021/01/19 04:24:27;;;;;;;5.37;2.40;;;3.20;71.60;;;;;;5084379;28;20204;-90
2021/01/19 04:26:53;;;;;;;2.33;2.13;;;3.10;72.80;;;;;;5084737;28;20254;-90
2021/01/19 04:29:18;;;;;;;3.70;2.13;;;3.10;72.20;;;;;;5066968;28;20203;-90
2021/01/19 04:31:44;;;;;;;4.27;2.70;;;3.10;72.40;;;;;;5085023;28;20188;-90
2021/01/19 04:34:10;;;;;;;2.70;2.37;;;3.10;72.30;;;;;;5066681;28;20199;-89
2021/01/19 04:36:36;;;;;;;2.67;2.27;;;3.00;73.10;;;;;;5066768;28;20218;-90
2021/01/19 04:39:02;;;;;;;5.47;2.50;;;3.10;72.50;;;;;;5067048;28;20212;-90
2021/01/19 04:41:28;;;;;;;3.43;2.30;;;3.10;72.20;;;;;;5084196;28;20666;-90
2021/01/19 04:43:58;;;;;;;3.57;2.47;;;3.10;72.10;;;;;;5066559;28;20180;-90
2021/01/19 04:46:26;;;;;;;3.73;2.30;;;3.10;72.30;;;;;;5084674;28;20182;-90
2021/01/19 04:48:53;;;;;;;3.43;2.10;;;3.20;71.90;;;;;;5067218;28;20180;-90
2021/01/19 04:51:23;;;;;;;3.93;2.30;;;3.20;71.40;;;;;;5066430;28;20225;-89
2021/01/19 04:54:08;;;;;;;3.13;2.20;;;3.10;72.10;;;;;;5084492;28;20179;-90
2021/01/19 04:56:46;;;;;;;3.30;2.13;;;3.00;73.00;;;;;;5084766;28;20209;-90
2021/01/19 04:59:13;;;;;;;2.30;2.10;;;3.00;72.70;;;;;;5084786;28;20215;-89
2021/01/19 05:01:55;;;;;;;4.57;2.30;;;3.10;72.60;;;;;;5080598;28;20176;-90
2021/01/19 05:04:26;;;;;;;3.97;2.23;;;3.10;71.90;;;;;;5064808;28;20188;-90
2021/01/19 05:07:00;;;;;;;4.23;2.60;;;3.10;72.50;;;;;;5067357;28;20185;-90
2021/01/19 05:09:36;;;;;;;4.73;2.20;;;3.00;72.30;;;;;;5065273;28;20795;-89
2021/01/19 05:12:04;;;;;;;4.73;2.37;;;3.00;72.10;;;;;;5065575;28;20210;-91
2021/01/19 05:14:39;;;;;;;2.60;2.07;;;3.00;72.50;;;;;;5025670;28;20317;-91
2021/01/19 05:17:06;;;;;;;4.23;2.33;;;3.00;72.80;;;;;;5032262;28;20189;-91
2021/01/19 05:19:31;;;;;;;4.40;3.27;;;3.00;73.20;;;;;;5023364;28;20209;-90
2021/01/19 05:21:57;;;;;;;3.90;2.30;;;2.90;73.30;;;;;;5021871;28;20235;-90
2021/01/19 05:24:24;;;;;;;5.40;2.80;;;2.90;73.60;;;;;;5023171;28;20181;-90
2021/01/19 05:26:50;;;;;;;3.67;2.47;;;3.00;72.70;;;;;;5022901;28;20253;-90
2021/01/19 05:29:16;;;;;;;4.23;2.50;;;2.90;73.50;;;;;;5023193;28;20202;-90
2021/01/19 05:31:41;;;;;;;4.13;2.47;;;2.90;73.00;;;;;;5021716;28;20186;-91
2021/01/19 05:34:12;;;;;;;4.80;2.50;;;2.90;73.50;;;;;;5020948;28;20676;-91
2021/01/19 05:36:43;;;;;;;2.87;2.40;;;2.90;73.10;;;;;;4998406;28;159602;-91
2021/01/19 05:39:12;;;;;;;2.50;2.30;;;2.90;73.40;;;;;;5040573;28;20251;-91
2021/01/19 05:41:41;;;;;;;3.13;2.10;;;2.80;74.50;;;;;;5042454;28;20184;-90
2021/01/19 05:44:29;;;;;;;4.20;2.37;;;2.80;73.40;;;;;;5025567;28;20196;-91
2021/01/19 05:47:05;;;;;;;2.80;2.37;;;2.70;74.20;;;;;;5043472;28;20162;-91
2021/01/19 05:49:38;;;;;;;4.33;2.50;;;2.80;72.90;;;;;;5041711;28;20726;-91
2021/01/19 05:52:06;;;;;;;4.97;2.20;;;2.80;73.70;;;;;;5042012;28;20185;-90
2021/01/19 05:54:34;;;;;;;4.93;2.27;;;2.80;74.00;;;;;;5040623;28;20212;-91
2021/01/19 05:57:23;;;;;;;4.37;2.23;;;2.90;74.10;;;;;;5041483;28;20188;-90
2021/01/19 06:00:00;;;;;;;3.93;2.57;;;2.80;73.40;;;;;;5042206;28;20220;-91
2021/01/19 06:02:40;;;;;;;3.30;2.17;;;2.80;74.00;;;;;;5042762;28;20191;-92
2021/01/19 06:05:31;;;;;;;3.83;2.43;;;2.80;73.60;;;;;;5056545;28;20190;-92
2021/01/19 06:08:01;;;;;;;4.03;2.13;;;2.80;73.90;;;;;;5041235;28;20181;-91
2021/01/19 06:10:27;;;;;;;2.37;2.17;;;2.80;74.70;;;;;;5023836;28;20205;-91
2021/01/19 06:12:53;;;;;;;3.67;2.37;;;2.80;74.30;;;;;;5057461;28;20654;-91
2021/01/19 06:15:27;;;;;;;3.47;2.10;;;2.90;74.40;;;;;;5040172;28;20216;-92
2021/01/19 06:17:53;;;;;;;3.10;2.00;;;2.80;74.20;;;;;;5040057;28;20180;-92
2021/01/19 06:20:19;;;;;;;5.17;2.57;;;2.90;73.80;;;;;;5040781;28;20715;-92
2021/01/19 06:22:45;;;;;;;3.80;2.37;;;2.90;74.10;;;;;;5040668;28;20180;-91
2021/01/19 06:25:14;;;;;;;5.47;2.13;;;2.90;73.80;;;;;;5040719;28;20173;-91
2021/01/19 06:27:40;;;;;;;3.07;1.90;;;2.80;73.90;;;;;;5039722;28;20196;-91
2021/01/19 06:30:10;;;;;;;2.33;2.10;;;2.80;74.60;;;;;;5040861;28;20552;-91
2021/01/19 06:32:59;;;;;;;5.67;2.07;;;2.80;74.80;;;;;;5041298;28;20763;-91
2021/01/19 06:35:24;;;;;;;2.80;2.17;;;2.80;74.00;;;;;;5040831;28;20162;-91
2021/01/19 06:37:52;;;;;;;2.03;1.83;;;2.90;74.00;;;;;;5040885;28;20185;-91
2021/01/19 06:40:25;;;;;;;4.60;2.13;;;2.80;74.40;;;;;;5039776;28;20217;-92
2021/01/19 06:43:04;;;;;;;4.10;2.33;;;2.80;74.00;;;;;;5056874;28;20201;-92
2021/01/19 06:45:32;;;;;;;3.20;2.20;;;2.90;74.40;;;;;;5040500;28;20216;-92
2021/01/19 06:48:00;;;;;;;6.43;2.60;;;2.80;74.00;;;;;;5041231;28;20270;-90
2021/01/19 06:50:28;;;;;;;5.57;2.67;;;2.90;74.10;;;;;;5040272;28;20242;-92
2021/01/19 06:53:13;;;;;;;5.97;2.80;;;2.80;74.30;;;;;;5040325;28;20181;-90
2021/01/19 06:55:57;;;;;;;3.07;2.10;;;2.80;74.50;;;;;;5039328;28;20713;-91
2021/01/19 06:58:44;;;;;;;2.53;2.17;;;2.80;74.20;;;;;;5040364;28;20639;-91
2021/01/19 07:01:18;;;;;;;4.40;2.40;;;2.80;74.50;;;;;;5040789;28;20157;-91
2021/01/19 07:03:45;;;;;;;3.90;2.50;;;2.90;74.90;;;;;;5039014;28;20264;-90
2021/01/19 07:06:13;;;;;;;2.87;2.00;;;2.80;73.70;;;;;;5040052;28;20185;-91
2021/01/19 07:09:12;;;;;;;4.47;2.43;;;2.80;73.80;;;;;;5039130;28;20195;-91
2021/01/19 07:11:38;;;;;;;3.30;2.47;;;2.80;74.40;;;;;;5039262;28;20177;-91
2021/01/19 07:14:14;;;;;;;4.23;2.13;;;2.80;74.00;;;;;;5040217;28;20227;-92
2021/01/19 07:17:05;;;;;;;3.00;2.33;;;2.80;73.90;;;;;;5040998;28;20644;-91
2021/01/19 07:19:49;;;;;;;4.97;2.57;;;2.80;74.00;;;;;;5033240;28;20213;-91
2021/01/19 07:22:44;;;;;;;5.23;2.23;;;2.80;74.90;;;;;;5022532;28;20283;-91
2021/01/19 07:25:10;;;;;;;3.67;2.30;;;2.80;74.00;;;;;;5038724;28;20196;-90
2021/01/19 07:27:36;;;;;;;3.07;2.17;;;2.80;73.70;;;;;;5057185;28;20648;-91
2021/01/19 07:30:05;;;;;;;4.07;2.20;;;2.70;74.50;;;;;;5040766;28;20200;-92
2021/01/19 07:32:32;;;;;;;3.23;2.07;;;2.80;74.20;;;;;;5039465;28;20180;-91
2021/01/19 07:35:05;;;;;;;2.50;1.97;;;2.80;74.00;;;;;;5041008;28;20177;-91
2021/01/19 07:37:35;;;;;;;2.80;2.17;;;2.80;73.50;;;;;;5039499;28;20217;-91
2021/01/19 07:40:02;;;;;;;3.83;2.13;;;2.80;73.40;;;;;;5042131;28;20216;-91
2021/01/19 07:42:32;;;;;;;2.70;2.00;;;2.70;74.00;;;;;;5042158;28;20188;-91
2021/01/19 07:45:00;;;;;;;3.90;2.23;;;2.70;74.70;;;;;;5045110;28;20180;-90
2021/01/19 07:47:38;;;;;;;5.13;2.30;;;2.80;73.90;;;;;;5052244;28;20189;-90
2021/01/19 07:50:06;;;;;;;5.30;2.60;;;2.90;73.60;;;;;;5042603;28;20262;-93
2021/01/19 07:52:37;;;;;;;4.63;2.47;;;2.80;73.60;;;;;;5043070;28;20204;-91
2021/01/19 07:55:17;;;;;;;2.80;2.03;;;2.90;73.50;;;;;;5045678;28;20227;-90
2021/01/19 07:57:44;;;;;;;5.20;2.13;;;2.90;74.00;;;;;;5048540;28;20184;-90
2021/01/19 08:00:11;;;;;;;2.70;2.27;;;2.90;73.60;;;;;;5041997;28;20282;-92
2021/01/19 08:02:37;;;;;;;3.87;2.33;;;2.90;73.80;;;;;;5040215;28;20188;-91
2021/01/19 08:05:08;;;;;;;2.90;2.30;;;2.90;73.60;;;;;;5024815;28;20189;-92
2021/01/19 08:07:45;;;;;;;4.37;2.40;;;2.90;74.10;;;;;;5025826;28;20171;-92
2021/01/19 08:10:22;;;;;;;4.73;2.20;;;2.90;73.50;;;;;;5041583;28;20231;-90
2021/01/19 08:12:59;;;;;;;4.33;3.00;;;3.00;73.10;;;;;;5042821;28;20165;-91
2021/01/19 08:15:29;;;;;;;6.60;2.73;;;3.00;72.80;;;;;;5040705;28;20177;-91
2021/01/19 08:17:56;;;;;;;3.73;2.27;;;3.00;73.30;;;;;;5041533;28;20204;-92
2021/01/19 08:20:33;;;;;;;7.77;2.53;;;2.90;73.60;;;;;;5041694;28;20622;-91
2021/01/19 08:23:24;;;;;;;3.83;2.17;;;3.00;73.10;;;;;;5039158;28;20261;-91
2021/01/19 08:25:50;;;;;;;4.77;2.40;;;3.00;73.00;;;;;;5041301;28;20174;-90
2021/01/19 08:28:16;;;;;;;3.77;2.53;;;2.90;73.80;;;;;;5026319;28;20182;-91
2021/01/19 08:30:44;;;;;;;8.27;2.50;;;2.90;73.60;;;;;;5042955;28;20204;-91
2021/01/19 08:33:12;;;;;;;3.37;2.27;;;2.90;74.30;;;;;;5039565;28;20177;-92
2021/01/19 08:35:38;;;;;;;4.93;2.27;;;2.80;73.70;;;;;;5040250;28;20532;-91
2021/01/19 08:38:04;;;;;;;5.03;2.00;;;3.00;73.60;;;;;;5036388;28;20189;-91
2021/01/19 08:40:32;;;;;;;6.70;2.43;;;3.00;72.90;;;;;;5003319;28;20260;-92
2021/01/19 08:42:59;;;;;;;4.63;2.60;;;3.00;73.30;;;;;;5024939;28;20173;-90
2021/01/19 08:45:33;;;;;;;3.73;2.00;;;2.90;73.20;;;;;;5025062;28;20181;-90
2021/01/19 08:48:02;;;;;;;3.87;2.10;;;2.90;73.40;;;;;;5019702;28;20164;-91
2021/01/19 08:50:30;;;;;;;2.90;2.30;;;2.90;73.30;;;;;;5018657;28;20212;-90
2021/01/19 08:52:56;;;;;;;2.90;2.20;;;2.90;73.10;;;;;;5018903;28;20197;-91
2021/01/19 08:55:25;;;;;;;7.90;3.07;;;3.00;72.90;;;;;;5020109;28;20182;-91
2021/01/19 08:57:56;;;;;;;5.10;2.50;;;2.90;73.40;;;;;;5037078;28;20185;-91
2021/01/19 09:00:32;;;;;;;3.90;2.47;;;3.00;73.40;;;;;;5036220;28;20220;-91
2021/01/19 09:02:58;;;;;;;3.17;2.13;;;3.00;73.60;;;;;;5020002;28;20220;-91
2021/01/19 09:05:31;;;;;;;4.17;2.13;;;3.00;73.10;;;;;;5021453;28;20173;-91
2021/01/19 09:07:58;;;;;;;4.07;2.37;;;3.10;73.20;;;;;;5022322;28;20684;-91
2021/01/19 09:10:27;;;;;;;3.20;2.33;;;3.10;73.20;;;;;;5020568;28;20292;-91
2021/01/19 09:12:53;;;;;;;3.73;2.40;;;3.20;72.70;;;;;;5037904;28;20181;-90
2021/01/19 09:15:19;;;;;;;5.30;2.53;;;3.20;72.30;;;;;;5022851;28;20189;-90
2021/01/19 09:17:55;;;;;;;6.17;2.40;;;3.20;72.70;;;;;;5021707;28;20205;-91
2021/01/19 09:20:23;;;;;;;4.73;2.50;;;3.30;72.70;;;;;;5018415;28;20228;-90
2021/01/19 09:22:49;;;;;;;3.83;2.43;;;3.20;72.30;;;;;;5035091;28;20235;-91
2021/01/19 09:25:23;;;;;;;4.13;2.07;;;3.30;73.70;;;;;;5020204;28;20184;-91
2021/01/19 09:27:49;;;;;;;6.43;2.50;;;3.30;72.40;;;;;;5018759;28;20288;-91
2021/01/19 09:30:18;;;;;;;5.03;2.30;;;3.30;72.40;;;;;;5028892;28;20205;-92
2021/01/19 09:32:44;;;;;;;5.60;2.60;;;3.30;72.20;;;;;;5038879;28;20173;-91
2021/01/19 09:35:13;;;;;;;8.10;2.83;;;3.30;72.40;;;;;;5039842;28;20177;-91
2021/01/19 09:37:40;;;;;;;3.67;2.10;;;3.30;72.00;;;;;;5039184;28;20180;-91
2021/01/19 09:40:07;;;;;;;4.47;2.03;;;3.40;72.10;;;;;;5038808;28;20212;-92
2021/01/19 09:42:38;;;;;;;3.07;2.10;;;3.40;72.50;;;;;;5039052;28;20177;-92
2021/01/19 09:45:06;;;;;;;6.40;2.67;;;3.40;72.50;;;;;;5036775;28;20633;-91
2021/01/19 09:47:32;;;;;;;4.90;2.20;;;3.40;72.40;;;;;;5036898;28;20189;-91
2021/01/19 09:49:58;;;;;;;3.50;2.07;;;3.50;72.10;;;;;;5038102;28;20233;-91
2021/01/19 09:52:31;;;;;;;4.27;2.20;;;3.60;71.40;;;;;;5038943;28;20260;-91
2021/01/19 09:55:11;;;;;;;4.87;2.03;;;3.70;70.80;;;;;;5037226;28;20264;-91
2021/01/19 09:57:39;;;;;;;3.63;2.50;;;3.60;71.00;;;;;;5038409;28;20180;-92
2021/01/19 10:00:11;;;;;;;3.97;2.20;;;3.60;70.50;;;;;;5036185;28;20221;-91
2021/01/19 10:02:38;;;;;;;4.63;2.47;;;3.60;71.40;;;;;;5037640;28;20169;-91
2021/01/19 10:05:06;;;;;;;6.40;2.60;;;3.60;71.90;;;;;;5037418;28;20181;-91
2021/01/19 10:07:32;;;;;;;3.57;2.30;;;3.70;71.90;;;;;;5039578;28;20195;-91
2021/01/19 10:10:12;;;;;;;4.30;2.80;;;3.60;71.20;;;;;;5054121;28;20201;-91
2021/01/19 10:12:39;;;;;;;4.77;2.50;;;3.70;72.10;;;;;;5038504;28;20200;-92
2021/01/19 10:15:07;;;;;;;6.03;2.60;;;3.80;70.70;;;;;;5020563;28;20596;-91
2021/01/19 10:17:34;;;;;;;6.13;2.80;;;3.80;71.40;;;;;;5041049;28;20177;-91
2021/01/19 10:20:21;;;;;;;4.73;2.63;;;3.80;71.20;;;;;;5040040;28;20215;-90
2021/01/19 10:22:48;;;;;;;5.50;2.43;;;3.80;71.10;;;;;;5039727;28;20207;-91
2021/01/19 10:25:26;;;;;;;4.37;2.27;;;3.90;70.90;;;;;;5044865;28;20177;-88
2021/01/19 10:27:56;;;;;;;3.37;2.60;;;3.90;71.80;;;;;;5054722;28;20168;-92
2021/01/19 10:30:34;;;;;;;5.27;2.33;;;3.90;70.90;;;;;;5041435;28;20282;-93
2021/01/19 10:33:01;;;;;;;5.27;2.83;;;3.80;71.00;;;;;;5045478;28;20167;-92
2021/01/19 10:35:30;;;;;;;5.97;3.00;;;3.90;71.70;;;;;;5036260;28;20181;-94
2021/01/19 10:38:02;;;;;;;4.47;2.23;;;3.90;71.70;;;;;;5052595;28;20192;-93
2021/01/19 10:40:29;;;;;;;4.80;2.47;;;3.90;71.20;;;;;;5043706;28;20216;-92
2021/01/19 10:42:55;;;;;;;5.60;2.70;;;3.80;71.70;;;;;;5042000;28;20185;-92
2021/01/19 10:45:29;;;;;;;5.30;2.67;;;3.90;71.20;;;;;;5042703;28;20181;-93
2021/01/19 10:47:56;;;;;;;4.40;2.50;;;3.90;71.60;;;;;;5026148;28;20320;-92
2021/01/19 10:50:26;;;;;;;3.03;2.10;;;4.00;70.90;;;;;;5058235;28;20201;-92
2021/01/19 10:53:00;;;;;;;5.70;2.60;;;4.00;70.30;;;;;;5042878;28;20709;-92
2021/01/19 10:55:27;;;;;;;3.30;2.70;;;4.10;71.80;;;;;;5058147;28;20181;-92
2021/01/19 10:58:02;;;;;;;4.87;3.07;;;4.10;71.70;;;;;;5042932;28;20184;-93
2021/01/19 11:00:29;;;;;;;8.57;3.57;;;4.00;71.70;;;;;;5020159;28;20220;-91
2021/01/19 11:02:56;;;;;;;3.83;2.47;;;3.90;72.00;;;;;;5040670;28;20628;-91
2021/01/19 11:05:23;;;;;;;4.60;2.77;;;4.10;72.10;;;;;;5040822;28;20185;-92
2021/01/19 11:07:50;;;;;;;11.50;3.27;;;4.00;72.90;;;;;;5041921;28;20185;-92
2021/01/19 11:10:21;;;;;;;4.17;2.63;;;4.00;72.60;;;;;;5039573;28;20201;-92
2021/01/19 11:12:47;;;;;;;6.93;3.17;;;4.00;73.10;;;;;;5044310;28;20161;-92
2021/01/19 11:15:14;;;;;;;7.20;2.90;;;4.00;74.00;;;;;;5044326;28;20204;-92
2021/01/19 11:17:40;;;;;;;5.20;3.10;;;4.00;73.30;;;;;;5046431;28;20205;-92
2021/01/19 11:20:08;;;;;;;3.03;2.67;;;4.00;72.90;;;;;;5047951;28;20216;-92
2021/01/19 11:22:34;;;;;;;4.57;2.87;;;4.00;73.90;;;;;;5046946;28;20692;-92
2021/01/19 11:25:00;;;;;;;5.57;2.63;;;4.00;74.20;;;;;;5049187;28;20173;-92
2021/01/19 11:27:27;;;;;;;4.57;2.87;;;3.90;74.30;;;;;;5047198;28;20192;-92
2021/01/19 11:29:54;;;;;;;3.23;2.63;;;4.10;73.90;;;;;;5047179;28;20227;-91
2021/01/19 11:32:19;;;;;;;8.13;3.07;;;4.00;73.50;;;;;;5046586;28;20247;-90
2021/01/19 11:34:45;;;;;;;5.33;2.67;;;4.00;75.00;;;;;;5030996;28;20196;-94
2021/01/19 11:37:15;;;;;;;6.23;3.00;;;4.00;74.30;;;;;;5047290;28;20192;-92
2021/01/19 11:39:41;;;;;;;2.70;2.47;;;3.90;75.00;;;;;;5045095;28;20285;-92
2021/01/19 11:42:08;;;;;;;5.70;2.70;;;4.00;75.30;;;;;;5047540;28;20196;-92
2021/01/19 11:44:34;;;;;;;5.20;2.67;;;3.90;76.30;;;;;;5044876;28;20283;-91
2021/01/19 11:47:00;;;;;;;4.73;2.70;;;3.80;76.80;;;;;;5046337;28;20181;-91
2021/01/19 11:49:25;;;;;;;6.73;2.70;;;3.80;76.80;;;;;;5047575;28;20211;-91
2021/01/19 11:51:51;;;;;;;8.73;3.20;;;3.90;77.50;;;;;;5045808;28;20257;-91
2021/01/19 11:54:18;;;;;;;5.33;3.10;;;3.80;78.60;;;;;;5044200;28;20200;-91
2021/01/19 11:56:48;;;;;;;5.57;2.50;;;3.80;78.50;;;;;;5053400;28;20551;-92
2021/01/19 11:59:14;;;;;;;5.20;2.70;;;3.70;81.00;;;;;;5064840;28;20219;-91
2021/01/19 12:01:40;;;;;;;5.23;2.60;;;3.80;79.20;;;;;;5061175;28;20241;-90
2021/01/19 12:04:07;;;;;;;4.17;2.40;;;3.70;80.40;;;;;;5046858;28;20256;-90
2021/01/19 12:06:36;;;;;;;3.90;2.80;;;3.60;79.60;;;;;;5045715;28;20190;-91
2021/01/19 12:09:04;;;;;;;4.77;2.70;;;3.50;80.80;;;;;;5045116;28;20250;-91
2021/01/19 12:11:29;;;;;;;4.50;2.60;;;3.50;81.20;;;;;;5044579;28;20181;-91
2021/01/19 12:13:55;;;;;;;3.70;2.13;;;3.50;81.30;;;;;;5044311;28;20193;-91
2021/01/19 12:16:22;;;;;;;5.90;2.47;;;3.50;82.00;;;;;;5045546;28;20193;-91
2021/01/19 12:18:49;;;;;;;3.93;2.47;;;3.50;84.20;;;;;;5044371;28;20208;-91
2021/01/19 12:21:16;;;;;;;7.87;3.57;;;3.50;83.90;;;;;;5046074;28;20197;-91
2021/01/19 12:23:46;;;;;;;5.23;2.60;;;3.40;84.70;;;;;;5045393;28;20177;-91
2021/01/19 12:26:12;;;;;;;3.53;2.87;;;3.50;84.30;;;;;;5041893;28;20181;-91
2021/01/19 12:28:39;;;;;;;6.97;3.00;;;3.50;85.50;;;;;;5042124;28;20212;-91
2021/01/19 12:31:05;;;;;;;4.83;3.20;;;3.50;86.70;;;;;;5042432;28;20220;-90
2021/01/19 12:33:31;;;;;;;4.17;2.90;;;3.40;87.60;;;;;;5043017;28;20189;-90
2021/01/19 12:35:57;;;;;;;6.73;3.30;;;3.40;88.80;;;;;;5043530;28;20192;-92
2021/01/19 12:38:22;;;;;;;3.57;2.97;;;3.50;88.60;;;;;;5045307;28;20252;-90
2021/01/19 12:40:49;;;;;;;5.50;3.00;;;3.50;87.90;;;;;;5043813;28;20231;-90
2021/01/19 12:43:15;;;;;;;5.03;2.77;;;3.40;89.50;;;;;;5044597;28;20188;-91
2021/01/19 12:45:41;;;;;;;6.87;3.13;;;3.50;88.20;;;;;;5043626;28;20211;-90
2021/01/19 12:48:08;;;;;;;6.50;2.90;;;3.50;89.50;;;;;;5041448;28;20196;-91
2021/01/19 12:50:35;;;;;;;3.73;2.60;;;3.50;88.40;;;;;;5040457;28;20205;-91
2021/01/19 12:53:05;;;;;;;7.00;2.80;;;3.50;89.20;;;;;;5042778;28;20189;-92
2021/01/19 12:55:31;;;;;;;6.97;2.93;;;3.50;88.00;;;;;;5043379;28;20904;-91
2021/01/19 12:57:58;;;;;;;6.43;2.57;;;3.50;87.60;;;;;;5041518;28;20529;-91
2021/01/19 13:00:24;;;;;;;5.57;3.00;;;3.50;86.90;;;;;;5042569;28;20216;-92
2021/01/19 13:02:50;;;;;;;3.00;2.60;;;3.40;85.80;;;;;;5027159;28;20190;-90
2021/01/19 13:05:16;;;;;;;6.40;2.70;;;3.50;85.70;;;;;;5058487;28;20240;-90
2021/01/19 13:07:42;;;;;;;5.27;2.67;;;3.50;86.40;;;;;;5046840;28;20533;-93
2021/01/19 13:10:09;;;;;;;2.57;2.13;;;3.50;86.30;;;;;;5042596;28;20276;-92